createdAt,value
2018-09-05T00:01:58.438Z,61.23
2018-09-05T00:04:26.942Z,62.40
2018-09-05T00:06:55.434Z,69.13
2018-09-05T00:09:23.941Z,61.20
2018-09-05T00:11:52.419Z,64.53
2018-09-05T00:14:20.950Z,65.67
2018-09-05T00:16:49.441Z,69.50
2018-09-05T00:19:17.913Z,66.43
2018-09-05T00:21:46.777Z,64.23
2018-09-05T00:24:15.226Z,63.97
2018-09-05T00:26:43.749Z,58.97
2018-09-05T00:29:12.289Z,67.03
2018-09-05T00:31:40.744Z,72.37
2018-09-05T00:34:09.192Z,71.90
2018-09-05T00:36:37.708Z,76.07
2018-09-05T00:39:07.830Z,70.50
2018-09-05T00:41:36.373Z,72.47
2018-09-05T00:44:04.910Z,70.13
2018-09-05T00:46:33.461Z,71.80
2018-09-05T00:49:02.272Z,74.37
2018-09-05T00:51:30.745Z,70.13
2018-09-05T00:53:59.357Z,81.27
2018-09-05T00:56:27.851Z,77.57
2018-09-05T00:58:56.362Z,75.77
2018-09-05T01:01:24.838Z,78.03
2018-09-05T01:03:53.358Z,69.87
2018-09-05T01:06:21.919Z,83.17
2018-09-05T01:08:50.381Z,80.00
2018-09-05T01:11:18.854Z,81.90
2018-09-05T01:13:47.337Z,74.30
2018-09-05T01:16:15.791Z,77.40
2018-09-05T01:18:44.329Z,81.40
2018-09-05T01:21:12.789Z,88.53
2018-09-05T01:23:41.370Z,76.00
2018-09-05T01:26:09.834Z,86.67
2018-09-05T01:28:38.339Z,80.20
2018-09-05T01:31:06.846Z,82.13
2018-09-05T01:33:35.896Z,86.07
2018-09-05T01:36:11.402Z,83.20
2018-09-05T01:38:39.993Z,92.83
2018-09-05T01:41:08.501Z,75.93
2018-09-05T01:43:37.097Z,84.77
2018-09-05T01:46:05.665Z,82.70
2018-09-05T01:48:34.176Z,74.80
2018-09-05T01:51:02.712Z,80.33
2018-09-05T01:53:31.190Z,72.63
2018-09-05T01:55:59.779Z,76.20
2018-09-05T01:58:28.393Z,81.83
2018-09-05T02:00:57.191Z,81.53
2018-09-05T02:03:25.717Z,85.97
2018-09-05T02:05:54.204Z,82.43
2018-09-05T02:08:22.701Z,83.80
2018-09-05T02:10:51.341Z,81.43
2018-09-05T02:13:19.837Z,74.70
2018-09-05T02:15:48.477Z,81.27
2018-09-05T02:18:16.992Z,73.87
2018-09-05T02:20:45.461Z,87.97
2018-09-05T02:23:13.969Z,81.53
2018-09-05T02:25:42.461Z,75.50
2018-09-05T02:28:10.932Z,79.47
2018-09-05T02:30:39.550Z,73.60
2018-09-05T02:33:08.036Z,68.50
2018-09-05T02:35:36.512Z,76.37
2018-09-05T02:38:05.448Z,73.80
2018-09-05T02:40:34.015Z,75.10
2018-09-05T02:43:02.387Z,73.87
2018-09-05T02:45:30.869Z,67.87
2018-09-05T02:47:59.374Z,66.63
2018-09-05T02:50:27.913Z,67.23
2018-09-05T02:52:56.378Z,75.80
2018-09-05T02:55:30.310Z,73.73
2018-09-05T02:57:58.784Z,68.87
2018-09-05T03:00:27.282Z,70.07
2018-09-05T03:02:56.010Z,75.40
2018-09-05T03:05:24.481Z,78.10
2018-09-05T03:07:52.980Z,74.10
2018-09-05T03:10:21.570Z,74.97
2018-09-05T03:12:50.093Z,71.33
2018-09-05T03:15:18.549Z,65.10
2018-09-05T03:17:47.047Z,69.53
2018-09-05T03:20:15.570Z,71.30
2018-09-05T03:22:44.017Z,73.50
2018-09-05T03:25:12.641Z,66.23
2018-09-05T03:27:41.552Z,67.53
2018-09-05T03:30:10.030Z,68.70
2018-09-05T03:32:38.583Z,63.13
2018-09-05T03:35:07.242Z,65.40
2018-09-05T03:37:35.785Z,63.90
2018-09-05T03:40:04.398Z,68.50
2018-09-05T03:42:32.831Z,69.63
2018-09-05T03:45:01.335Z,63.50
2018-09-05T03:47:30.110Z,67.27
2018-09-05T03:49:58.670Z,71.93
2018-09-05T03:52:27.138Z,63.50
2018-09-05T03:54:55.630Z,65.83
2018-09-05T03:57:24.141Z,68.13
2018-09-05T03:59:52.896Z,64.63
2018-09-05T04:02:21.433Z,64.60
2018-09-05T04:04:50.225Z,63.27
2018-09-05T04:07:18.677Z,59.30
2018-09-05T04:09:47.148Z,66.50
2018-09-05T04:12:15.807Z,63.40
2018-09-05T04:14:44.301Z,57.83
2018-09-05T04:17:12.787Z,63.63
2018-09-05T04:19:41.290Z,58.13
2018-09-05T04:22:09.861Z,58.60
2018-09-05T04:24:38.233Z,59.83
2018-09-05T04:27:06.971Z,61.67
2018-09-05T04:29:35.532Z,64.43
2018-09-05T04:32:04.224Z,64.43
2018-09-05T04:34:32.669Z,63.27
2018-09-05T04:37:01.256Z,60.80
2018-09-05T04:39:29.744Z,60.83
2018-09-05T04:41:58.327Z,77.20
2018-09-05T04:44:26.788Z,69.67
2018-09-05T04:46:55.377Z,63.47
2018-09-05T04:49:23.937Z,59.77
2018-09-05T04:51:52.409Z,66.23
2018-09-05T04:54:20.977Z,62.40
2018-09-05T04:56:49.455Z,68.47
2018-09-05T04:59:17.985Z,60.83
2018-09-05T05:01:46.501Z,60.70
2018-09-05T05:04:14.975Z,64.53
2018-09-05T05:06:43.509Z,62.07
2018-09-05T05:09:12.718Z,66.27
2018-09-05T05:11:41.921Z,60.60
2018-09-05T05:14:10.979Z,60.60
2018-09-05T05:16:39.483Z,64.23
2018-09-05T05:19:07.956Z,64.03
2018-09-05T05:21:36.445Z,61.13
2018-09-05T05:24:04.889Z,56.10
2018-09-05T05:26:33.392Z,65.20
2018-09-05T05:29:01.928Z,49.60
2018-09-05T05:31:30.428Z,56.87
2018-09-05T05:33:58.954Z,62.20
2018-09-05T05:36:27.651Z,52.50
2018-09-05T05:38:56.153Z,49.37
2018-09-05T05:41:24.685Z,51.97
2018-09-05T05:43:53.235Z,52.83
2018-09-05T05:46:21.821Z,54.43
2018-09-05T05:48:50.302Z,56.40
2018-09-05T05:51:18.771Z,53.77
2018-09-05T05:53:47.293Z,51.20
2018-09-05T05:56:15.738Z,55.27
2018-09-05T05:58:44.201Z,45.47
2018-09-05T06:01:12.753Z,52.20
2018-09-05T06:03:41.227Z,45.33
2018-09-05T06:06:09.764Z,44.77
2018-09-05T06:08:38.258Z,46.07
2018-09-05T06:11:06.929Z,45.23
2018-09-05T06:13:35.770Z,47.10
2018-09-05T06:16:04.249Z,46.93
2018-09-05T06:18:32.722Z,43.43
2018-09-05T06:21:01.330Z,40.60
2018-09-05T06:23:30.138Z,56.07
2018-09-05T06:25:58.617Z,41.77
2018-09-05T06:28:27.133Z,40.87
2018-09-05T06:30:56.092Z,46.50
2018-09-05T06:33:24.487Z,41.27
2018-09-05T06:35:52.987Z,46.07
2018-09-05T06:38:21.509Z,42.83
2018-09-05T06:40:50.165Z,42.40
2018-09-05T06:43:18.636Z,45.93
2018-09-05T06:45:47.159Z,43.20
2018-09-05T06:48:15.669Z,46.87
2018-09-05T06:50:44.168Z,42.73
2018-09-05T06:53:12.669Z,42.90
2018-09-05T06:55:41.138Z,45.73
2018-09-05T06:58:09.829Z,36.17
2018-09-05T07:00:38.357Z,45.10
2018-09-05T07:03:07.136Z,38.37
2018-09-05T07:05:35.704Z,35.23
2018-09-05T07:08:04.221Z,43.73
2018-09-05T07:10:32.714Z,40.87
2018-09-05T07:13:01.238Z,41.07
2018-09-05T07:15:29.732Z,34.60
2018-09-05T07:17:58.266Z,35.37
2018-09-05T07:20:26.758Z,40.00
2018-09-05T07:22:55.265Z,38.10
2018-09-05T07:25:23.795Z,34.77
2018-09-05T07:27:52.293Z,36.20
2018-09-05T07:30:20.899Z,33.97
2018-09-05T07:32:49.328Z,35.20
2018-09-05T07:35:18.156Z,40.20
2018-09-05T07:37:46.680Z,37.53
2018-09-05T07:40:15.303Z,34.87
2018-09-05T07:42:43.833Z,36.37
2018-09-05T07:45:12.381Z,31.83
2018-09-05T07:47:40.907Z,37.60
2018-09-05T07:50:09.409Z,32.87
2018-09-05T07:52:37.977Z,43.33
2018-09-05T07:55:06.799Z,39.80
2018-09-05T07:57:35.245Z,40.33
2018-09-05T08:00:03.748Z,37.50
2018-09-05T08:02:32.282Z,38.97
2018-09-05T08:05:00.885Z,30.07
2018-09-05T08:08:01.342Z,27.77
2018-09-05T08:10:29.857Z,28.40
2018-09-05T08:12:58.330Z,30.97
2018-09-05T08:15:26.970Z,29.47
2018-09-05T08:17:55.528Z,35.77
2018-09-05T08:20:24.046Z,31.93
2018-09-05T08:22:52.574Z,32.73
2018-09-05T08:25:21.047Z,29.30
2018-09-05T08:27:49.597Z,29.57
2018-09-05T08:30:18.098Z,31.63
2018-09-05T08:32:46.576Z,28.53
2018-09-05T08:35:15.270Z,30.20
2018-09-05T08:37:43.790Z,29.43
2018-09-05T08:40:12.159Z,31.43
2018-09-05T08:42:41.142Z,28.33
2018-09-05T08:45:09.954Z,26.80
2018-09-05T08:47:38.373Z,32.67
2018-09-05T08:50:07.029Z,27.07
2018-09-05T08:52:35.517Z,27.60
2018-09-05T08:55:04.153Z,29.50
2018-09-05T08:57:32.732Z,28.20
2018-09-05T09:00:01.266Z,27.57
2018-09-05T09:02:29.798Z,24.90
2018-09-05T09:04:58.325Z,23.87
2018-09-05T09:07:26.811Z,22.70
2018-09-05T09:09:55.703Z,25.20
2018-09-05T09:12:24.254Z,21.67
2018-09-05T09:14:52.897Z,20.77
2018-09-05T09:17:21.414Z,22.87
2018-09-05T09:19:49.905Z,22.70
2018-09-05T09:22:18.781Z,23.87
2018-09-05T09:24:47.411Z,27.90
2018-09-05T09:27:15.957Z,25.30
2018-09-05T09:29:44.877Z,19.23
2018-09-05T09:32:12.304Z,24.13
2018-09-05T09:34:40.777Z,16.23
2018-09-05T09:37:09.261Z,20.50
2018-09-05T09:39:37.738Z,14.43
2018-09-05T09:42:06.690Z,15.27
2018-09-05T09:44:35.642Z,13.40
2018-09-05T09:47:04.141Z,17.67
2018-09-05T09:49:32.720Z,15.83
2018-09-05T09:52:06.524Z,12.93
2018-09-05T09:54:35.006Z,10.10
2018-09-05T09:57:03.581Z,11.10
2018-09-05T09:59:32.080Z,11.13
2018-09-05T10:02:05.869Z,13.20
2018-09-05T10:04:39.752Z,11.53
2018-09-05T10:07:13.588Z,15.53
2018-09-05T10:09:47.523Z,9.57
2018-09-05T10:12:21.248Z,18.80
2018-09-05T10:14:58.747Z,11.43
2018-09-05T10:17:32.827Z,14.07
2018-09-05T10:20:01.798Z,10.97
2018-09-05T10:22:30.833Z,13.60
2018-09-05T10:24:59.425Z,12.60
2018-09-05T10:27:28.450Z,12.00
2018-09-05T10:29:57.252Z,17.47
2018-09-05T10:32:26.097Z,11.50
2018-09-05T10:34:55.788Z,12.63
2018-09-05T10:37:24.281Z,12.50
2018-09-05T10:39:52.860Z,17.83
2018-09-05T10:42:21.437Z,14.10
2018-09-05T10:44:50.005Z,24.90
2018-09-05T10:47:18.484Z,13.00
2018-09-05T10:49:47.015Z,12.53
2018-09-05T10:52:15.469Z,14.13
2018-09-05T10:54:43.989Z,13.13
2018-09-05T10:57:12.458Z,11.20
2018-09-05T10:59:40.926Z,17.20
2018-09-05T11:02:09.469Z,11.00
2018-09-05T11:04:37.952Z,13.20
2018-09-05T11:07:06.541Z,16.40
2018-09-05T11:09:35.001Z,10.93
2018-09-05T11:12:03.460Z,10.77
2018-09-05T11:14:31.941Z,9.10
2018-09-05T11:17:00.429Z,10.23
2018-09-05T11:19:28.953Z,18.23
2018-09-05T11:21:57.424Z,11.80
2018-09-05T11:24:25.953Z,8.60
2018-09-05T11:26:54.422Z,11.37
2018-09-05T11:29:22.983Z,14.20
2018-09-05T11:31:52.030Z,9.60
2018-09-05T11:34:20.555Z,9.40
2018-09-05T11:36:49.099Z,9.97
2018-09-05T11:39:17.566Z,12.50
2018-09-05T11:41:46.054Z,11.00
2018-09-05T11:44:14.740Z,9.50
2018-09-05T11:46:43.276Z,13.83
2018-09-05T11:49:11.813Z,11.33
2018-09-05T11:51:40.450Z,7.87
2018-09-05T11:54:09.784Z,9.40
2018-09-05T11:56:38.399Z,10.20
2018-09-05T11:59:07.084Z,8.17
2018-09-05T12:01:35.626Z,9.27
2018-09-05T12:04:04.133Z,8.03
2018-09-05T12:06:32.653Z,9.27
2018-09-05T12:09:01.158Z,10.53
2018-09-05T12:11:29.629Z,9.20
2018-09-05T12:13:58.111Z,7.50
2018-09-05T12:16:26.596Z,8.10
2018-09-05T12:18:55.143Z,8.90
2018-09-05T12:21:23.817Z,8.30
2018-09-05T12:23:52.324Z,10.53
2018-09-05T12:26:21.377Z,8.80
2018-09-05T12:28:49.916Z,8.07
2018-09-05T12:31:18.397Z,8.90
2018-09-05T12:33:46.949Z,10.10
2018-09-05T12:36:15.464Z,9.57
2018-09-05T12:38:44.030Z,8.43
2018-09-05T12:41:12.556Z,6.73
2018-09-05T12:43:41.033Z,7.80
2018-09-05T12:46:09.585Z,7.10
2018-09-05T12:48:38.069Z,7.70
2018-09-05T12:51:06.677Z,4.90
2018-09-05T12:53:35.209Z,6.63
2018-09-05T12:56:03.697Z,9.90
2018-09-05T12:58:32.207Z,6.73
2018-09-05T13:01:00.802Z,8.10
2018-09-05T13:03:29.374Z,10.53
2018-09-05T13:05:57.894Z,6.63
2018-09-05T13:08:26.588Z,7.13
2018-09-05T13:10:55.065Z,8.73
2018-09-05T13:13:23.737Z,8.70
2018-09-05T13:15:52.316Z,6.43
2018-09-05T13:18:22.181Z,6.50
2018-09-05T13:20:50.747Z,8.93
2018-09-05T13:23:19.297Z,11.90
2018-09-05T13:25:47.801Z,6.83
2018-09-05T13:28:16.274Z,5.90
2018-09-05T13:30:44.756Z,6.63
2018-09-05T13:33:13.277Z,4.97
2018-09-05T13:35:41.877Z,8.73
2018-09-05T13:38:10.566Z,5.50
2018-09-05T13:40:39.304Z,4.27
2018-09-05T13:43:07.973Z,11.50
2018-09-05T13:45:36.472Z,10.20
2018-09-05T13:48:04.973Z,8.90
2018-09-05T13:50:33.585Z,7.90
2018-09-05T13:53:02.053Z,5.20
2018-09-05T13:55:30.568Z,5.50
2018-09-05T13:57:59.160Z,8.23
2018-09-05T14:00:27.688Z,10.37
2018-09-05T14:02:56.318Z,4.67
2018-09-05T14:05:24.803Z,7.10
2018-09-05T14:07:53.274Z,5.90
2018-09-05T14:10:21.768Z,6.10
2018-09-05T14:12:50.248Z,6.10
2018-09-05T14:15:18.790Z,5.60
2018-09-05T14:17:47.336Z,14.33
2018-09-05T14:20:15.888Z,4.47
2018-09-05T14:22:44.427Z,4.67
2018-09-05T14:25:13.105Z,7.60
2018-09-05T14:27:41.625Z,5.13
2018-09-05T14:30:10.117Z,8.07
2018-09-05T14:32:38.593Z,7.60
2018-09-05T14:35:07.166Z,5.67
2018-09-05T14:37:35.697Z,8.03
2018-09-05T14:40:04.293Z,7.87
2018-09-05T14:42:32.826Z,4.37
2018-09-05T14:45:01.355Z,4.90
2018-09-05T14:47:29.865Z,7.27
2018-09-05T14:49:58.581Z,4.93
2018-09-05T14:52:27.084Z,5.97
2018-09-05T14:54:55.608Z,4.50
2018-09-05T14:57:24.151Z,4.83
2018-09-05T14:59:52.776Z,7.10
2018-09-05T15:02:21.546Z,6.40
2018-09-05T15:04:50.183Z,7.83
2018-09-05T15:07:19.110Z,6.80
2018-09-05T15:09:47.774Z,6.97
2018-09-05T15:12:16.256Z,5.27
2018-09-05T15:14:44.791Z,7.90
2018-09-05T15:17:13.481Z,10.80
2018-09-05T15:19:42.146Z,7.97
2018-09-05T15:22:10.766Z,4.27
2018-09-05T15:24:39.285Z,7.90
2018-09-05T15:27:07.850Z,6.07
2018-09-05T15:29:36.389Z,5.80
2018-09-05T15:32:04.930Z,10.63
2018-09-05T15:34:33.389Z,5.70
2018-09-05T15:37:01.825Z,7.80
2018-09-05T15:39:30.504Z,8.67
2018-09-05T15:41:59.116Z,11.37
2018-09-05T15:44:33.118Z,7.50
2018-09-05T15:47:01.591Z,10.33
2018-09-05T15:49:30.082Z,5.53
2018-09-05T15:51:58.626Z,7.47
2018-09-05T15:54:27.616Z,6.83
2018-09-05T15:56:56.149Z,6.30
2018-09-05T15:59:24.837Z,8.23
2018-09-05T16:01:54.546Z,16.63
2018-09-05T16:04:23.165Z,12.10
2018-09-05T16:06:51.722Z,9.80
2018-09-05T16:09:20.234Z,7.80
2018-09-05T16:11:48.784Z,9.73
2018-09-05T16:14:17.343Z,8.37
2018-09-05T16:16:45.857Z,8.30
2018-09-05T16:19:14.344Z,8.87
2018-09-05T16:21:42.930Z,9.67
2018-09-05T16:24:11.376Z,7.30
2018-09-05T16:26:39.881Z,14.73
2018-09-05T16:29:08.493Z,19.13
2018-09-05T16:31:36.982Z,11.10
2018-09-05T16:34:05.512Z,10.93
2018-09-05T16:36:34.050Z,11.37
2018-09-05T16:39:02.650Z,9.40
2018-09-05T16:41:31.138Z,9.30
2018-09-05T16:43:59.691Z,10.97
2018-09-05T16:46:28.202Z,10.40
2018-09-05T16:48:56.683Z,8.90
2018-09-05T16:51:25.210Z,10.50
2018-09-05T16:53:53.682Z,10.87
2018-09-05T16:56:22.290Z,12.67
2018-09-05T16:58:50.869Z,15.30
2018-09-05T17:01:19.390Z,8.60
2018-09-05T17:03:47.923Z,14.60
2018-09-05T17:06:16.463Z,8.83
2018-09-05T17:08:45.002Z,7.67
2018-09-05T17:11:13.701Z,9.90
2018-09-05T17:13:42.073Z,12.23
2018-09-05T17:16:10.573Z,9.10
2018-09-05T17:18:39.079Z,11.00
2018-09-05T17:21:07.864Z,9.93
2018-09-05T17:23:36.381Z,11.13
2018-09-05T17:26:04.917Z,9.50
2018-09-05T17:28:33.601Z,9.00
2018-09-05T17:31:02.235Z,6.60
2018-09-05T17:33:30.762Z,9.00
2018-09-05T17:35:59.267Z,9.97
2018-09-05T17:38:27.830Z,11.27
2018-09-05T17:40:56.464Z,11.80
2018-09-05T17:43:24.917Z,8.10
2018-09-05T17:45:53.433Z,9.33
2018-09-05T17:48:22.029Z,16.67
2018-09-05T17:50:50.578Z,8.27
2018-09-05T17:53:19.178Z,9.83
2018-09-05T17:55:48.115Z,10.13
2018-09-05T17:58:16.729Z,10.30
2018-09-05T18:00:45.257Z,8.23
2018-09-05T18:03:13.782Z,11.53
2018-09-05T18:05:42.381Z,8.87
2018-09-05T18:08:10.933Z,7.70
2018-09-05T18:10:39.497Z,7.53
2018-09-05T18:13:08.105Z,10.23
2018-09-05T18:15:36.643Z,10.03
2018-09-05T18:18:05.350Z,10.83
2018-09-05T18:20:34.186Z,10.30
2018-09-05T18:23:02.715Z,8.27
2018-09-05T18:25:31.190Z,12.93
2018-09-05T18:27:59.789Z,9.83
2018-09-05T18:30:28.326Z,11.63
2018-09-05T18:32:56.812Z,16.23
2018-09-05T18:35:25.339Z,11.90
2018-09-05T18:37:53.852Z,11.03
2018-09-05T18:41:51.497Z,9.80
2018-09-05T18:44:19.994Z,8.27
2018-09-05T18:46:48.482Z,11.10
2018-09-05T18:49:17.125Z,15.40
2018-09-05T18:51:45.705Z,12.90
2018-09-05T18:54:14.173Z,8.57
2018-09-05T18:56:42.663Z,9.10
2018-09-05T18:59:11.213Z,12.70
2018-09-05T19:01:39.964Z,10.47
2018-09-05T19:04:08.828Z,11.30
2018-09-05T19:06:37.324Z,10.37
2018-09-05T19:09:08.545Z,17.00
2018-09-05T19:11:37.898Z,15.50
2018-09-05T19:14:06.393Z,7.50
2018-09-05T19:16:34.866Z,11.90
2018-09-05T19:19:03.425Z,11.43
2018-09-05T19:21:32.119Z,7.50
2018-09-05T19:24:00.608Z,9.87
2018-09-05T19:26:29.161Z,7.20
2018-09-05T19:28:57.677Z,10.00
2018-09-05T19:31:26.206Z,15.10
2018-09-05T19:33:54.797Z,5.53
2018-09-05T19:36:23.298Z,12.00
2018-09-05T19:38:52.163Z,14.10
2018-09-05T19:41:21.001Z,8.90
2018-09-05T19:43:49.561Z,8.87
2018-09-05T19:46:18.069Z,9.30
2018-09-05T19:48:46.967Z,9.87
2018-09-05T19:51:15.562Z,8.30
2018-09-05T19:53:44.138Z,12.50
2018-09-05T19:56:12.733Z,12.97
2018-09-05T19:58:41.672Z,14.53
2018-09-05T20:01:10.261Z,13.67
2018-09-05T20:03:38.760Z,13.80
2018-09-05T20:06:07.653Z,15.93
2018-09-05T20:08:36.247Z,7.17
2018-09-05T20:11:04.708Z,9.13
2018-09-05T20:13:33.657Z,12.43
2018-09-05T20:16:02.196Z,13.90
2018-09-05T20:18:30.793Z,17.70
2018-09-05T20:20:59.311Z,12.53
2018-09-05T20:23:28.218Z,14.10
2018-09-05T20:25:56.646Z,12.90
2018-09-05T20:28:25.124Z,14.93
2018-09-05T20:30:53.894Z,16.67
2018-09-05T20:33:22.611Z,11.00
2018-09-05T20:35:51.077Z,10.77
2018-09-05T20:38:19.846Z,13.70
2018-09-05T20:40:48.308Z,13.57
2018-09-05T20:43:16.754Z,16.20
2018-09-05T20:45:45.212Z,11.50
2018-09-05T20:48:13.719Z,15.83
2018-09-05T20:50:42.262Z,13.13
2018-09-05T20:53:10.792Z,10.80
2018-09-05T20:55:39.314Z,10.73
2018-09-05T20:58:07.881Z,15.83
2018-09-05T21:00:36.439Z,13.90
2018-09-05T21:03:04.937Z,13.73
2018-09-05T21:05:33.789Z,14.97
2018-09-05T21:08:02.320Z,19.70
2018-09-05T21:10:30.862Z,13.20
2018-09-05T21:12:59.454Z,11.40
2018-09-05T21:15:28.004Z,15.57
2018-09-05T21:17:56.542Z,11.93
2018-09-05T21:20:24.984Z,12.43
2018-09-05T21:22:53.474Z,12.00
2018-09-05T21:25:22.004Z,20.53
2018-09-05T21:27:50.549Z,14.70
2018-09-05T21:30:19.190Z,14.57
2018-09-05T21:32:47.677Z,12.93
2018-09-05T21:35:16.188Z,14.60
2018-09-05T21:37:44.708Z,16.30
2018-09-05T21:40:13.245Z,14.23
2018-09-05T21:42:41.881Z,18.63
2018-09-05T21:45:10.368Z,14.90
2018-09-05T21:47:38.840Z,17.00
2018-09-05T21:50:07.931Z,12.67
2018-09-05T21:52:36.452Z,11.53
2018-09-05T21:55:04.943Z,14.23
2018-09-05T21:57:33.460Z,15.00
2018-09-05T22:00:01.957Z,19.73
2018-09-05T22:02:30.442Z,16.90
2018-09-05T22:04:59.008Z,15.83
2018-09-05T22:07:27.623Z,17.57
2018-09-05T22:09:56.149Z,15.40
2018-09-05T22:12:24.745Z,16.40
2018-09-05T22:14:53.213Z,23.37
2018-09-05T22:17:21.754Z,16.40
2018-09-05T22:19:50.222Z,18.17
2018-09-05T22:22:19.088Z,18.80
2018-09-05T22:24:47.581Z,17.57
2018-09-05T22:27:16.056Z,18.60
2018-09-05T22:29:44.578Z,21.37
2018-09-05T22:32:13.231Z,17.13
2018-09-05T22:34:41.718Z,13.90
2018-09-05T22:37:10.237Z,14.90
2018-09-05T22:39:38.742Z,17.10
2018-09-05T22:42:07.270Z,17.50
2018-09-05T22:44:46.893Z,16.80
2018-09-05T22:47:26.845Z,16.77
2018-09-05T22:51:32.891Z,24.83
2018-09-05T22:54:22.112Z,17.73
2018-09-05T22:59:10.153Z,16.80
2018-09-05T23:01:51.871Z,18.30
2018-09-05T23:04:31.301Z,18.53
2018-09-05T23:08:21.205Z,16.93
2018-09-05T23:11:01.091Z,17.67
2018-09-05T23:13:40.954Z,18.43
2018-09-05T23:16:20.735Z,21.80
2018-09-05T23:19:37.893Z,18.97
2018-09-05T23:22:06.466Z,17.33
2018-09-05T23:24:34.962Z,17.70
2018-09-05T23:27:03.526Z,20.33
2018-09-05T23:29:32.056Z,19.13
2018-09-05T23:32:00.876Z,18.07
2018-09-05T23:34:29.454Z,22.60
2018-09-05T23:36:57.928Z,17.80
2018-09-05T23:39:26.430Z,18.90
2018-09-05T23:41:55.010Z,20.73
2018-09-05T23:44:23.538Z,18.93
2018-09-05T23:46:52.059Z,20.50
2018-09-05T23:49:20.598Z,20.90
2018-09-05T23:51:49.110Z,18.67
2018-09-05T23:54:17.671Z,23.47
2018-09-05T23:56:46.215Z,20.53
2018-09-05T23:59:14.727Z,20.17
